»·PEaware :: AAY383 KFAT-KSNA

AAY383 :: KFAT-KSNA

FLIGHT INFORMATION

Flight Status: Arrived
Operator:
Allegiant Air
More flights by this operator :: More flights under this callsign
Pilot: David C. (16084)
Aircraft: AIRBUS A320
(A320)
More flights by this aircraft type
Origin: KFAT Fresno Yosemite Intl
United States
Destination: KSNA John Wayne-Orange Co
United States
More flights between these airports :: More routes between these airports
Route: +BULL3 CZQ FRAME REBRG OHSEA2
File this flight plan on PilotEdge
Remarks:
Altitude:
(Current/Filed)
27,000ft
Speed:
(Current/Filed)
484kts
Departed: 29-Nov-20 05:55 PM
Arrived: 29-Nov-20 06:46 PM
Distance/Time
Traveled:
207nm/0:51
Distance/Time
To Go:
Arrived

Flight Plot

Page will automatically refresh every two minutes.

Flight plan parsing failed; only flown route is shown


Map Options




Map Legend


Flown Route
Filed Route
Departure Airport
Arrival Airport
Navaid (VOR, NDB)
Fix

Horizontal Profiles

Position Reports

Time Latitude Longitude Heading Altitude Ground
Speed
29-Nov-20 17:20 36.771058 -119.718042 313 342ft 0kts
29-Nov-20 17:21 36.771058 -119.718042 313 342ft 0kts
29-Nov-20 17:22 36.771058 -119.718042 313 342ft 0kts
29-Nov-20 17:23 36.771058 -119.718042 313 342ft 0kts
29-Nov-20 17:24 36.771058 -119.718042 313 342ft 0kts
29-Nov-20 17:25 36.771058 -119.718042 313 342ft 0kts
29-Nov-20 17:26 36.771058 -119.718042 313 342ft 0kts
29-Nov-20 17:27 36.771058 -119.718042 313 342ft 0kts
29-Nov-20 17:28 36.771058 -119.718042 313 342ft 0kts
29-Nov-20 17:29 36.771058 -119.718042 313 342ft 0kts
29-Nov-20 17:30 36.771058 -119.718042 313 342ft 0kts
29-Nov-20 17:31 36.771058 -119.718042 313 342ft 0kts
29-Nov-20 17:32 36.771058 -119.718042 313 342ft 0kts
29-Nov-20 17:33 36.771058 -119.718042 313 342ft 0kts
29-Nov-20 17:34 36.771058 -119.718042 313 342ft 0kts
29-Nov-20 17:35 36.771058 -119.718042 313 342ft 0kts
29-Nov-20 17:36 36.771058 -119.718042 313 342ft 0kts
29-Nov-20 17:37 36.771058 -119.718042 313 342ft 0kts
29-Nov-20 17:38 36.771058 -119.718042 313 342ft 0kts
29-Nov-20 17:39 36.771058 -119.718042 313 342ft 0kts
29-Nov-20 17:40 36.771058 -119.718042 313 342ft 0kts
29-Nov-20 17:41 36.771058 -119.718042 313 342ft 0kts
29-Nov-20 17:42 36.771058 -119.718042 313 342ft 0kts
29-Nov-20 17:43 36.770905 -119.717859 319 342ft 2kts
29-Nov-20 17:44 36.770594 -119.717586 330 342ft 0kts
29-Nov-20 17:45 36.770595 -119.717586 330 342ft 0kts
29-Nov-20 17:46 36.770595 -119.717586 330 342ft 0kts
29-Nov-20 17:47 36.770609 -119.717591 342 342ft 0kts
29-Nov-20 17:48 36.770761 -119.717463 39 342ft 0kts
29-Nov-20 17:49 36.771190 -119.717031 37 342ft 11kts
29-Nov-20 17:50 36.770483 -119.712918 125 342ft 21kts
29-Nov-20 17:51 36.767611 -119.705934 89 342ft 22kts
29-Nov-20 17:52 36.768088 -119.704402 36 342ft 0kts
29-Nov-20 17:53 36.768891 -119.703904 345 342ft 10kts
29-Nov-20 17:54 36.785375 -119.732706 305 1045ft 181kts
29-Nov-20 17:55 36.817836 -119.789041 305 4043ft 209kts
29-Nov-20 17:56 36.852994 -119.848296 305 7097ft 219kts
29-Nov-20 17:57 36.890554 -119.909783 305 9751ft 229kts
29-Nov-20 17:58 36.925373 -119.975501 270 10468ft 230kts
29-Nov-20 17:59 36.877151 -120.008534 151 12474ft 274kts
29-Nov-20 18:00 36.815082 -119.931819 136 13772ft 347kts
29-Nov-20 18:01 36.741697 -119.837629 136 14660ft 403kts
29-Nov-20 18:02 36.660479 -119.734085 136 15232ft 422kts
29-Nov-20 18:03 36.559388 -119.668813 177 16841ft 418kts
29-Nov-20 18:04 36.442154 -119.657799 178 18397ft 424kts
29-Nov-20 18:05 36.322920 -119.646586 178 19696ft 432kts
29-Nov-20 18:06 36.201407 -119.635229 179 20874ft 440kts
29-Nov-20 18:07 36.077449 -119.623686 179 21956ft 448kts
29-Nov-20 18:08 35.952164 -119.620699 192 22902ft 448kts
29-Nov-20 18:09 35.827814 -119.646084 193 23796ft 455kts
29-Nov-20 18:10 35.701147 -119.670635 188 24585ft 464kts
29-Nov-20 18:11 35.573285 -119.633836 160 25591ft 484kts
29-Nov-20 18:12 35.450198 -119.565511 160 26570ft 486kts
29-Nov-20 18:13 35.325580 -119.496918 161 27215ft 487kts
29-Nov-20 18:14 35.201706 -119.428985 161 27217ft 487kts
29-Nov-20 18:15 35.077968 -119.361349 161 27218ft 487kts
29-Nov-20 18:16 34.954886 -119.294281 163 27229ft 481kts
29-Nov-20 18:17 34.837121 -119.230234 164 27187ft 456kts
29-Nov-20 18:18 34.724883 -119.168472 161 27214ft 463kts
29-Nov-20 18:19 34.609736 -119.095300 160 27192ft 463kts
29-Nov-20 18:21 34.495713 -119.021961 160 27160ft 464kts
29-Nov-20 18:22 34.384441 -118.948800 159 26471ft 432kts
29-Nov-20 18:23 34.282263 -118.880957 159 24853ft 409kts
29-Nov-20 18:24 34.181472 -118.826991 168 22490ft 384kts
29-Nov-20 18:25 34.081128 -118.787296 167 20230ft 372kts
29-Nov-20 18:26 33.984248 -118.749709 166 18161ft 355kts
29-Nov-20 18:27 33.892642 -118.714318 165 16327ft 340kts
29-Nov-20 18:28 33.803263 -118.679866 163 14524ft 331kts
29-Nov-20 18:29 33.715919 -118.646973 164 12766ft 323kts
29-Nov-20 18:30 33.629883 -118.616813 163 11051ft 317kts
29-Nov-20 18:31 33.568573 -118.553571 122 10096ft 274kts
29-Nov-20 18:32 33.528441 -118.478255 121 9055ft 268kts
29-Nov-20 18:33 33.519537 -118.386890 91 7758ft 277kts
29-Nov-20 18:34 33.529438 -118.296778 69 6553ft 273kts
29-Nov-20 18:34 33.552125 -118.226139 69 5611ft 270kts
29-Nov-20 18:36 33.592181 -118.133905 55 5000ft 267kts
29-Nov-20 18:37 33.633449 -118.059751 55 4998ft 265kts
29-Nov-20 18:37 33.664898 -118.003211 55 5004ft 223kts
29-Nov-20 18:39 33.703196 -117.941689 27 4896ft 188kts
29-Nov-20 18:39 33.740787 -117.918068 26 4081ft 181kts
29-Nov-20 18:40 33.783697 -117.887845 50 3126ft 179kts
29-Nov-20 18:42 33.774496 -117.827768 150 2012ft 170kts
29-Nov-20 18:42 33.741406 -117.828090 208 1337ft 145kts
29-Nov-20 18:43 33.706360 -117.849987 207 593ft 141kts
29-Nov-20 18:44 33.672669 -117.870753 207 65ft 96kts
29-Nov-20 18:45 33.667579 -117.872881 98 65ft 0kts
29-Nov-20 18:46 33.667773 -117.872313 41 65ft 12kts
29-Nov-20 18:47 33.673013 -117.867395 38 65ft 21kts
29-Nov-20 18:48 33.678024 -117.863868 64 65ft 10kts
29-Nov-20 18:49 33.677911 -117.863213 118 65ft 0kts
29-Nov-20 18:50 33.677911 -117.863213 118 65ft 0kts

Navigation Log

Ident Type
Flight plan parsing failed, navigation log unavailable